createdAt,value
2023-04-29T00:00:13.352Z,10.73
2023-04-29T00:02:41.843Z,13.23
2023-04-29T00:05:11.211Z,12.40
2023-04-29T00:07:40.071Z,12.23
2023-04-29T00:10:09.374Z,13.03
2023-04-29T00:12:37.866Z,15.27
2023-04-29T00:15:07.143Z,12.20
2023-04-29T00:17:37.014Z,12.97
2023-04-29T00:20:06.441Z,10.73
2023-04-29T00:22:34.753Z,8.73
2023-04-29T00:25:03.107Z,12.27
2023-04-29T00:27:31.421Z,9.37
2023-04-29T00:29:59.803Z,12.37
2023-04-29T00:32:28.130Z,9.00
2023-04-29T00:34:57.906Z,6.77
2023-04-29T00:37:26.191Z,7.67
2023-04-29T00:39:54.534Z,6.97
2023-04-29T00:42:23.404Z,6.90
2023-04-29T00:44:51.591Z,8.47
2023-04-29T00:47:20.007Z,7.17
2023-04-29T00:49:48.431Z,9.57
2023-04-29T00:52:19.107Z,8.03
2023-04-29T00:54:47.619Z,9.70
2023-04-29T00:57:16.538Z,13.20
2023-04-29T00:59:45.821Z,9.43
2023-04-29T01:02:15.338Z,9.57
2023-04-29T01:04:43.771Z,10.90
2023-04-29T01:07:18.491Z,9.40
2023-04-29T01:10:03.155Z,9.47
2023-04-29T01:12:38.118Z,11.00
2023-04-29T01:15:13.434Z,11.23
2023-04-29T01:17:45.960Z,14.17
2023-04-29T01:20:15.627Z,11.73
2023-04-29T01:22:45.517Z,12.07
2023-04-29T01:25:15.178Z,11.97
2023-04-29T01:28:11.627Z,13.60
2023-04-29T01:30:47.324Z,11.80
2023-04-29T01:33:20.536Z,12.87
2023-04-29T01:36:01.880Z,12.47
2023-04-29T01:38:37.910Z,9.90
2023-04-29T01:41:14.611Z,12.93
2023-04-29T01:43:45.610Z,13.03
2023-04-29T01:46:20.703Z,12.43
2023-04-29T01:48:50.420Z,11.30
2023-04-29T01:51:19.013Z,11.77
2023-04-29T01:53:47.304Z,12.77
2023-04-29T01:56:17.289Z,10.60
2023-04-29T01:59:00.048Z,9.17
2023-04-29T02:01:28.422Z,11.60
2023-04-29T02:03:56.715Z,12.47
2023-04-29T02:06:25.558Z,11.77
2023-04-29T02:08:59.156Z,9.03
2023-04-29T02:11:28.898Z,10.03
2023-04-29T02:13:59.263Z,12.87
2023-04-29T02:16:27.826Z,10.20
2023-04-29T02:19:02.631Z,9.80
2023-04-29T02:21:31.957Z,10.07
2023-04-29T02:24:02.705Z,11.33
2023-04-29T02:26:32.714Z,11.57
2023-04-29T02:29:01.087Z,11.27
2023-04-29T02:31:30.290Z,10.47
2023-04-29T02:33:58.582Z,12.23
2023-04-29T02:36:26.989Z,12.80
2023-04-29T02:38:56.534Z,11.20
2023-04-29T02:41:25.967Z,10.60
2023-04-29T02:43:55.748Z,8.97
2023-04-29T02:46:24.338Z,12.43
2023-04-29T02:48:53.121Z,10.13
2023-04-29T02:51:21.526Z,8.97
2023-04-29T02:53:50.373Z,9.57
2023-04-29T02:56:18.687Z,10.73
2023-04-29T02:58:47.048Z,11.13
2023-04-29T03:01:16.913Z,10.47
2023-04-29T03:03:45.421Z,14.87
2023-04-29T03:06:13.769Z,12.70
2023-04-29T03:08:42.170Z,10.33
2023-04-29T03:11:10.521Z,10.60
2023-04-29T03:13:40.113Z,8.43
2023-04-29T03:16:10.127Z,11.90
2023-04-29T03:18:40.000Z,10.73
2023-04-29T03:21:09.247Z,13.43
2023-04-29T03:23:39.471Z,11.93
2023-04-29T03:26:09.187Z,14.47
2023-04-29T03:28:38.893Z,13.93
2023-04-29T03:31:07.378Z,9.57
2023-04-29T03:33:36.291Z,10.57
2023-04-29T03:36:06.955Z,13.73
2023-04-29T03:38:41.675Z,10.60
2023-04-29T03:41:10.500Z,11.97
2023-04-29T03:43:38.825Z,11.40
2023-04-29T03:46:07.660Z,11.47
2023-04-29T03:48:37.013Z,12.87
2023-04-29T03:51:07.171Z,11.47
2023-04-29T03:53:36.905Z,12.37
2023-04-29T03:56:07.145Z,10.97
2023-04-29T03:58:35.512Z,12.20
2023-04-29T04:01:03.999Z,11.77
2023-04-29T04:03:39.971Z,12.87
2023-04-29T04:06:09.834Z,10.47
2023-04-29T04:08:38.193Z,13.93
2023-04-29T04:11:19.560Z,10.13
2023-04-29T04:13:56.594Z,12.33
2023-04-29T04:16:25.759Z,11.10
2023-04-29T04:18:54.056Z,12.20
2023-04-29T04:21:24.004Z,11.27
2023-04-29T04:24:01.779Z,11.03
2023-04-29T04:26:31.417Z,11.37
2023-04-29T04:29:15.603Z,12.03
2023-04-29T04:32:01.830Z,11.87
2023-04-29T04:34:31.341Z,15.40
2023-04-29T04:37:03.247Z,12.40
2023-04-29T04:39:32.574Z,12.33
2023-04-29T04:42:04.009Z,11.33
2023-04-29T04:44:34.639Z,27.87
2023-04-29T04:47:07.659Z,22.40
2023-04-29T04:49:49.921Z,15.20
2023-04-29T04:52:21.561Z,15.37
2023-04-29T04:55:00.690Z,16.40
2023-04-29T04:57:34.729Z,15.43
2023-04-29T05:00:04.392Z,12.17
2023-04-29T05:02:34.167Z,11.27
2023-04-29T05:05:02.971Z,13.60
2023-04-29T05:07:36.408Z,13.97
2023-04-29T05:10:08.899Z,17.30
2023-04-29T05:12:45.023Z,13.53
2023-04-29T05:15:15.157Z,14.17
2023-04-29T05:17:45.054Z,13.73
2023-04-29T05:20:14.220Z,13.80
2023-04-29T05:22:44.136Z,15.27
2023-04-29T05:25:14.317Z,10.73
2023-04-29T05:27:42.978Z,11.23
2023-04-29T05:30:16.383Z,13.23
2023-04-29T05:32:45.929Z,11.83
2023-04-29T05:35:17.358Z,9.17
2023-04-29T05:37:47.572Z,14.73
2023-04-29T05:40:39.540Z,11.27
2023-04-29T05:43:32.842Z,12.03
2023-04-29T05:46:01.807Z,11.37
2023-04-29T05:48:30.685Z,11.87
2023-04-29T05:50:59.407Z,11.07
2023-04-29T05:53:29.581Z,11.13
2023-04-29T05:55:58.249Z,11.80
2023-04-29T05:58:26.916Z,9.83
2023-04-29T06:00:55.445Z,9.17
2023-04-29T06:03:27.310Z,28.23
2023-04-29T06:06:18.620Z,9.23
2023-04-29T06:09:13.326Z,10.00
2023-04-29T06:11:47.308Z,11.90
2023-04-29T06:14:15.856Z,13.00
2023-04-29T06:16:44.066Z,11.70
2023-04-29T06:19:12.301Z,10.17
2023-04-29T06:21:40.707Z,9.73
2023-04-29T06:24:10.677Z,11.60
2023-04-29T06:26:39.120Z,12.97
2023-04-29T06:29:07.576Z,12.40
2023-04-29T06:31:38.490Z,9.97
2023-04-29T06:34:06.980Z,11.13
2023-04-29T06:36:39.730Z,8.67
2023-04-29T06:39:27.964Z,8.37
2023-04-29T06:42:16.787Z,13.87
2023-04-29T06:44:54.577Z,8.00
2023-04-29T06:47:52.413Z,8.90
2023-04-29T06:50:35.052Z,8.97
2023-04-29T06:53:03.490Z,8.07
2023-04-29T06:55:33.246Z,9.07
2023-04-29T06:58:01.995Z,11.20
2023-04-29T07:00:30.290Z,8.80
2023-04-29T07:02:58.935Z,11.10
2023-04-29T07:05:27.457Z,7.77
2023-04-29T07:07:55.942Z,9.43
2023-04-29T07:10:24.444Z,9.50
2023-04-29T07:12:54.676Z,6.27
2023-04-29T07:15:23.357Z,6.27
2023-04-29T07:17:51.883Z,5.87
2023-04-29T07:20:22.390Z,6.63
2023-04-29T07:22:51.164Z,5.57
2023-04-29T07:25:19.543Z,5.97
2023-04-29T07:27:48.037Z,5.63
2023-04-29T07:30:17.747Z,5.93
2023-04-29T07:32:46.097Z,7.03
2023-04-29T07:35:14.433Z,5.03
2023-04-29T07:37:44.107Z,5.35
2023-04-29T07:40:13.238Z,4.38
2023-04-29T07:42:41.668Z,4.25
2023-04-29T07:45:10.986Z,4.20
2023-04-29T07:47:40.858Z,5.18
2023-04-29T07:50:09.763Z,5.47
2023-04-29T07:52:40.444Z,6.18
2023-04-29T07:55:09.409Z,4.10
2023-04-29T07:57:37.689Z,3.88
2023-04-29T08:00:08.319Z,5.65
2023-04-29T08:02:45.049Z,3.30
2023-04-29T08:05:16.517Z,3.22
2023-04-29T08:07:44.988Z,3.75
2023-04-29T08:10:13.471Z,2.83
2023-04-29T08:12:41.993Z,4.63
2023-04-29T08:15:10.970Z,3.22
2023-04-29T08:17:39.390Z,3.28
2023-04-29T08:20:10.863Z,3.95
2023-04-29T08:22:39.351Z,2.60
2023-04-29T08:25:09.083Z,3.13
2023-04-29T08:27:37.273Z,2.95
2023-04-29T08:30:06.908Z,2.92
2023-04-29T08:32:35.699Z,3.38
2023-04-29T08:35:04.223Z,3.08
2023-04-29T08:37:33.957Z,3.97
2023-04-29T08:40:02.267Z,4.45
2023-04-29T08:42:37.850Z,3.22
2023-04-29T08:45:07.144Z,4.25
2023-04-29T08:47:36.549Z,2.47
2023-04-29T08:50:07.085Z,2.40
2023-04-29T08:52:37.665Z,3.63
2023-04-29T08:55:07.197Z,2.08
2023-04-29T08:57:39.993Z,2.47
2023-04-29T09:00:11.283Z,3.72
2023-04-29T09:02:44.904Z,2.42
2023-04-29T09:05:13.870Z,2.38
2023-04-29T09:07:45.245Z,2.22
2023-04-29T09:10:15.238Z,2.42
2023-04-29T09:12:43.571Z,2.58
2023-04-29T09:15:12.424Z,2.17
2023-04-29T09:17:45.041Z,2.25
2023-04-29T09:20:29.652Z,6.30
2023-04-29T09:23:01.766Z,2.33
2023-04-29T09:25:30.343Z,3.22
2023-04-29T09:28:15.877Z,2.05
2023-04-29T09:30:51.127Z,2.35
2023-04-29T09:33:19.528Z,2.33
2023-04-29T09:35:48.901Z,1.70
2023-04-29T09:38:18.955Z,1.70
2023-04-29T09:40:59.020Z,1.80
2023-04-29T09:43:28.445Z,1.50
2023-04-29T09:45:57.545Z,2.22
2023-04-29T09:48:33.835Z,3.25
2023-04-29T09:51:03.633Z,2.63
2023-04-29T09:53:37.975Z,2.65
2023-04-29T09:56:07.422Z,4.47
2023-04-29T09:58:38.205Z,2.05
2023-04-29T10:01:07.569Z,2.22
2023-04-29T10:03:37.578Z,2.38
2023-04-29T10:06:08.652Z,3.75
2023-04-29T10:08:38.410Z,2.10
2023-04-29T10:11:06.876Z,2.03
2023-04-29T10:13:38.560Z,2.13
2023-04-29T10:16:17.656Z,2.50
2023-04-29T10:18:53.743Z,2.00
2023-04-29T10:21:26.084Z,2.03
2023-04-29T10:23:57.972Z,2.58
2023-04-29T10:26:28.880Z,2.30
2023-04-29T10:28:58.750Z,1.85
2023-04-29T10:31:28.072Z,2.42
2023-04-29T10:33:58.127Z,1.80
2023-04-29T10:36:28.780Z,1.90
2023-04-29T10:39:02.768Z,1.83
2023-04-29T10:41:35.139Z,2.05
2023-04-29T10:44:04.724Z,1.98
2023-04-29T10:46:33.182Z,2.60
2023-04-29T10:49:04.109Z,2.03
2023-04-29T10:51:34.030Z,1.70
2023-04-29T10:54:07.708Z,1.70
2023-04-29T10:56:41.279Z,1.60
2023-04-29T10:59:16.739Z,1.95
2023-04-29T11:01:50.353Z,2.33
2023-04-29T11:04:20.148Z,1.83
2023-04-29T11:06:53.164Z,2.03
2023-04-29T11:09:26.903Z,2.05
2023-04-29T11:12:01.713Z,1.60
2023-04-29T11:14:37.406Z,2.05
2023-04-29T11:17:10.464Z,2.05
2023-04-29T11:19:43.037Z,2.53
2023-04-29T11:22:26.069Z,1.70
2023-04-29T11:24:58.325Z,1.92
2023-04-29T11:27:27.924Z,5.28
2023-04-29T11:29:58.930Z,1.42
2023-04-29T11:32:28.221Z,1.73
2023-04-29T11:34:56.853Z,3.38
2023-04-29T11:37:26.995Z,2.00
2023-04-29T11:40:02.416Z,2.00
2023-04-29T11:42:30.769Z,1.95
2023-04-29T11:45:00.577Z,1.50
2023-04-29T11:47:30.592Z,1.38
2023-04-29T11:50:06.220Z,1.85
2023-04-29T11:52:34.585Z,1.48
2023-04-29T11:55:05.041Z,2.67
2023-04-29T11:57:33.859Z,1.85
2023-04-29T12:00:02.660Z,2.65
2023-04-29T12:02:37.152Z,1.60
2023-04-29T12:05:08.703Z,1.67
2023-04-29T12:07:37.690Z,4.47
2023-04-29T12:10:11.392Z,2.30
2023-04-29T12:12:41.046Z,2.00
2023-04-29T12:15:11.297Z,1.40
2023-04-29T12:17:40.247Z,1.55
2023-04-29T12:20:10.864Z,1.70
2023-04-29T12:22:39.817Z,1.45
2023-04-29T12:25:10.601Z,1.30
2023-04-29T12:27:42.707Z,1.50
2023-04-29T12:30:12.254Z,1.40
2023-04-29T12:32:40.555Z,1.60
2023-04-29T12:35:16.788Z,1.33
2023-04-29T12:37:49.879Z,1.52
2023-04-29T12:40:20.799Z,1.45
2023-04-29T12:42:49.168Z,1.50
2023-04-29T12:45:32.203Z,1.55
2023-04-29T12:48:01.208Z,1.63
2023-04-29T12:50:33.001Z,1.60
2023-04-29T12:53:01.580Z,2.55
2023-04-29T12:55:31.050Z,1.60
2023-04-29T12:58:00.951Z,1.38
2023-04-29T13:00:29.509Z,1.15
2023-04-29T13:02:57.698Z,1.10
2023-04-29T13:05:25.987Z,1.50
2023-04-29T13:07:54.400Z,1.33
2023-04-29T13:10:22.617Z,1.40
2023-04-29T13:12:52.394Z,1.27
2023-04-29T13:15:21.570Z,1.23
2023-04-29T13:17:49.915Z,1.98
2023-04-29T13:20:18.387Z,1.65
2023-04-29T13:22:46.544Z,1.17
2023-04-29T13:25:16.432Z,1.50
2023-04-29T13:27:45.247Z,2.03
2023-04-29T13:30:15.079Z,1.25
2023-04-29T13:32:51.358Z,1.00
2023-04-29T13:35:22.957Z,1.05
2023-04-29T13:37:51.212Z,1.25
2023-04-29T13:40:21.238Z,1.48
2023-04-29T13:42:54.706Z,1.23
2023-04-29T13:45:32.242Z,1.10
2023-04-29T13:48:09.419Z,1.52
2023-04-29T14:01:10.076Z,1.30
2023-04-29T14:03:40.310Z,1.08
2023-04-29T14:06:08.596Z,1.20
2023-04-29T14:08:36.881Z,1.45
2023-04-29T14:11:05.510Z,2.03
2023-04-29T14:13:33.700Z,0.77
2023-04-29T14:16:05.395Z,1.33
2023-04-29T14:18:33.658Z,1.30
2023-04-29T14:21:01.716Z,1.15
2023-04-29T14:23:30.017Z,0.80
2023-04-29T14:26:16.662Z,0.82
2023-04-29T14:28:46.592Z,0.88
2023-04-29T14:31:18.414Z,1.38
2023-04-29T14:33:46.715Z,0.80
2023-04-29T14:36:15.604Z,0.60
2023-04-29T14:38:43.651Z,0.60
2023-04-29T14:41:11.819Z,1.27
2023-04-29T14:43:41.412Z,0.70
2023-04-29T14:46:10.015Z,2.05
2023-04-29T14:48:39.685Z,4.57
2023-04-29T14:51:08.486Z,0.60
2023-04-29T14:53:36.602Z,1.10
2023-04-29T14:56:05.245Z,0.73
2023-04-29T14:58:33.341Z,5.25
2023-04-29T15:01:01.700Z,1.98
2023-04-29T15:03:30.215Z,0.85
2023-04-29T15:06:03.736Z,1.25
2023-04-29T15:08:32.213Z,1.80
2023-04-29T15:11:00.448Z,1.48
2023-04-29T15:13:30.070Z,4.63
2023-04-29T15:15:59.323Z,1.20
2023-04-29T15:18:27.719Z,2.45
2023-04-29T15:20:55.950Z,1.77
2023-04-29T15:23:25.959Z,7.20
2023-04-29T15:25:54.394Z,2.15
2023-04-29T15:28:24.655Z,1.70
2023-04-29T15:30:52.953Z,5.93
2023-04-29T15:33:21.462Z,3.53
2023-04-29T15:35:49.905Z,1.77
2023-04-29T15:38:18.457Z,1.50
2023-04-29T15:40:48.062Z,1.52
2023-04-29T15:43:16.328Z,4.32
2023-04-29T15:45:44.677Z,2.20
2023-04-29T15:48:12.935Z,1.92
2023-04-29T15:50:41.174Z,1.55
2023-04-29T15:53:09.402Z,1.90
2023-04-29T15:55:37.695Z,2.00
2023-04-29T15:58:07.256Z,1.80
2023-04-29T16:00:35.528Z,1.67
2023-04-29T16:03:04.773Z,2.85
2023-04-29T16:05:33.244Z,1.35
2023-04-29T16:08:01.603Z,1.50
2023-04-29T16:10:29.874Z,1.13
2023-04-29T16:12:58.118Z,1.20
2023-04-29T16:15:28.371Z,0.95
2023-04-29T16:17:56.701Z,1.45
2023-04-29T16:20:25.760Z,4.13
2023-04-29T16:22:54.091Z,1.40
2023-04-29T16:25:22.561Z,1.75
2023-04-29T16:27:50.973Z,1.40
2023-04-29T16:30:19.146Z,1.73
2023-04-29T16:32:48.842Z,3.90
2023-04-29T16:35:17.725Z,1.90
2023-04-29T16:37:45.952Z,1.10
2023-04-29T16:40:15.117Z,1.65
2023-04-29T16:42:43.381Z,2.00
2023-04-29T16:45:12.799Z,2.45
2023-04-29T16:47:41.664Z,4.95
2023-04-29T16:50:13.225Z,3.27
2023-04-29T16:52:42.238Z,3.57
2023-04-29T16:55:12.185Z,2.37
2023-04-29T16:57:40.553Z,1.67
2023-04-29T17:00:10.447Z,3.40
2023-04-29T17:02:40.349Z,1.97
2023-04-29T17:05:11.264Z,1.93
2023-04-29T17:07:41.103Z,1.20
2023-04-29T17:10:10.282Z,1.60
2023-04-29T17:12:38.634Z,1.43
2023-04-29T17:15:07.866Z,1.20
2023-04-29T17:17:36.658Z,1.40
2023-04-29T17:20:05.798Z,2.63
2023-04-29T17:22:34.571Z,1.40
2023-04-29T17:25:04.193Z,1.30
2023-04-29T17:27:32.681Z,1.60
2023-04-29T17:30:01.593Z,1.33
2023-04-29T17:32:29.798Z,7.03
2023-04-29T17:34:58.311Z,1.30
2023-04-29T17:37:27.202Z,2.17
2023-04-29T17:39:56.186Z,2.17
2023-04-29T17:42:26.085Z,2.63
2023-04-29T17:44:54.412Z,2.87
2023-04-29T17:47:23.604Z,3.47
2023-04-29T17:49:52.503Z,3.47
2023-04-29T17:52:21.923Z,6.10
2023-04-29T17:54:50.174Z,3.00
2023-04-29T17:57:19.277Z,2.50
2023-04-29T17:59:49.185Z,1.60
2023-04-29T18:02:18.628Z,2.87
2023-04-29T18:04:47.300Z,5.87
2023-04-29T18:07:17.273Z,2.40
2023-04-29T18:09:45.406Z,2.10
2023-04-29T18:12:14.265Z,1.93
2023-04-29T18:14:42.517Z,1.60
2023-04-29T18:17:12.390Z,1.40
2023-04-29T18:19:40.655Z,1.53
2023-04-29T18:22:09.699Z,3.10
2023-04-29T18:24:39.062Z,1.63
2023-04-29T18:27:07.088Z,1.37
2023-04-29T18:29:35.326Z,3.27
2023-04-29T18:32:05.078Z,1.23
2023-04-29T18:34:36.468Z,2.17
2023-04-29T18:37:04.562Z,2.40
2023-04-29T18:39:32.653Z,5.13
2023-04-29T18:42:01.122Z,4.30
2023-04-29T18:44:29.393Z,5.83
2023-04-29T18:46:58.029Z,2.60
2023-04-29T18:49:26.348Z,2.30
2023-04-29T18:51:56.050Z,1.97
2023-04-29T18:54:24.881Z,3.20
2023-04-29T18:56:53.728Z,2.80
2023-04-29T18:59:22.972Z,4.70
2023-04-29T19:01:52.845Z,5.63
2023-04-29T19:04:22.444Z,3.10
2023-04-29T19:06:52.004Z,11.10
2023-04-29T19:09:22.002Z,2.33
2023-04-29T19:11:50.350Z,2.80
2023-04-29T19:14:18.534Z,2.47
2023-04-29T19:16:47.002Z,2.90
2023-04-29T19:19:16.930Z,3.20
2023-04-29T19:21:45.716Z,3.90
2023-04-29T19:24:14.023Z,2.27
2023-04-29T19:26:44.359Z,2.27
2023-04-29T19:29:14.475Z,2.90
2023-04-29T19:31:43.230Z,3.93
2023-04-29T19:34:12.166Z,9.40
2023-04-29T19:36:41.058Z,13.40
2023-04-29T19:39:10.958Z,11.80
2023-04-29T19:41:39.546Z,7.20
2023-04-29T19:44:10.901Z,4.90
2023-04-29T19:46:39.762Z,5.03
2023-04-29T19:49:08.249Z,4.60
2023-04-29T19:51:37.572Z,6.57
2023-04-29T19:54:05.780Z,3.60
2023-04-29T19:56:34.035Z,5.37
2023-04-29T19:59:02.666Z,3.90
2023-04-29T20:01:32.825Z,4.60
2023-04-29T20:04:01.279Z,3.03
2023-04-29T20:06:29.805Z,4.90
2023-04-29T20:08:58.788Z,3.67
2023-04-29T20:11:27.143Z,4.07
2023-04-29T20:13:55.537Z,5.73
2023-04-29T20:16:24.812Z,4.30
2023-04-29T20:18:54.574Z,3.53
2023-04-29T20:21:23.916Z,3.53
2023-04-29T20:23:52.634Z,3.77
2023-04-29T20:26:21.515Z,4.13
2023-04-29T20:28:50.191Z,3.77
2023-04-29T20:31:18.299Z,4.53
2023-04-29T20:33:47.027Z,3.63
2023-04-29T20:36:17.212Z,3.03
2023-04-29T20:38:45.777Z,5.50
2023-04-29T20:41:13.869Z,4.70
2023-04-29T20:43:42.790Z,4.63
2023-04-29T20:46:12.916Z,3.10
2023-04-29T20:48:41.645Z,4.33
2023-04-29T20:51:10.502Z,3.90
2023-04-29T20:53:40.337Z,3.50
2023-04-29T20:56:10.560Z,3.50
2023-04-29T20:58:38.653Z,3.63
2023-04-29T21:01:06.833Z,3.13
2023-04-29T21:03:35.181Z,3.77
2023-04-29T21:06:03.338Z,4.47
2023-04-29T21:08:31.470Z,3.07
2023-04-29T21:11:01.681Z,3.20
2023-04-29T21:13:29.859Z,2.80
2023-04-29T21:15:58.073Z,4.67
2023-04-29T21:18:26.437Z,3.43
2023-04-29T21:20:54.612Z,6.57
2023-04-29T21:23:23.097Z,3.20
2023-04-29T21:25:51.203Z,3.93
2023-04-29T21:28:20.862Z,3.50
2023-04-29T21:30:49.072Z,3.00
2023-04-29T21:33:17.390Z,3.50
2023-04-29T21:35:49.020Z,3.87
2023-04-29T21:38:18.393Z,3.27
2023-04-29T21:40:48.532Z,2.70
2023-04-29T21:43:17.377Z,4.33
2023-04-29T21:45:47.547Z,3.33
2023-04-29T21:48:17.885Z,3.90
2023-04-29T21:50:46.465Z,4.17
2023-04-29T21:53:16.640Z,3.13
2023-04-29T21:55:45.019Z,4.37
2023-04-29T21:58:13.158Z,3.80
2023-04-29T22:00:48.069Z,3.83
2023-04-29T22:03:17.867Z,3.63
2023-04-29T22:05:46.119Z,3.47
2023-04-29T22:08:14.309Z,4.53
2023-04-29T22:10:42.899Z,3.67
2023-04-29T22:13:11.466Z,4.10
2023-04-29T22:15:39.826Z,3.87
2023-04-29T22:18:08.147Z,4.90
2023-04-29T22:20:37.909Z,4.00
2023-04-29T22:23:06.100Z,3.43
2023-04-29T22:25:34.498Z,3.73
2023-04-29T22:28:02.696Z,4.40
2023-04-29T22:30:30.962Z,4.63
2023-04-29T22:32:59.343Z,4.10
2023-04-29T22:35:28.417Z,4.80
2023-04-29T22:37:58.015Z,3.23
2023-04-29T22:40:26.364Z,6.87
2023-04-29T22:42:54.524Z,4.13
2023-04-29T22:45:22.626Z,4.33
2023-04-29T22:47:51.055Z,5.27
2023-04-29T22:50:19.266Z,3.60
2023-04-29T22:52:47.374Z,5.73
2023-04-29T22:55:17.140Z,3.47
2023-04-29T22:57:45.304Z,4.93
2023-04-29T23:00:15.799Z,5.97
2023-04-29T23:02:44.108Z,5.87
2023-04-29T23:05:12.359Z,4.07
2023-04-29T23:07:41.227Z,5.60
2023-04-29T23:10:10.143Z,7.67
2023-04-29T23:12:39.857Z,4.77
2023-04-29T23:15:09.945Z,5.57
2023-04-29T23:17:39.855Z,8.13
2023-04-29T23:20:09.045Z,4.77
2023-04-29T23:22:37.236Z,5.30
2023-04-29T23:25:06.908Z,3.60
2023-04-29T23:27:34.963Z,4.07
2023-04-29T23:30:04.989Z,5.17
2023-04-29T23:32:33.341Z,5.23
2023-04-29T23:35:01.760Z,5.10
2023-04-29T23:37:30.061Z,3.87
2023-04-29T23:39:58.370Z,6.77
2023-04-29T23:42:27.392Z,3.50
2023-04-29T23:44:55.735Z,4.07
2023-04-29T23:47:25.573Z,5.57
2023-04-29T23:49:54.256Z,3.17
2023-04-29T23:52:22.656Z,4.00
2023-04-29T23:54:50.877Z,5.77
2023-04-29T23:57:19.072Z,4.13
2023-04-29T23:59:47.413Z,4.40
